createdAt,value
2023-05-01T00:01:11.913Z,100203.36
2023-05-01T00:03:39.108Z,100202.23
2023-05-01T00:06:07.542Z,100200.45
2023-05-01T00:08:34.843Z,100201.75
2023-05-01T00:11:03.224Z,100202.80
2023-05-01T00:13:31.850Z,100205.05
2023-05-01T00:15:59.039Z,100209.95
2023-05-01T00:18:26.224Z,100207.38
2023-05-01T00:20:53.157Z,100206.52
2023-05-01T00:23:20.584Z,100209.17
2023-05-01T00:25:47.481Z,100214.31
2023-05-01T00:28:15.143Z,100214.54
2023-05-01T00:30:42.101Z,100219.09
2023-05-01T00:33:12.202Z,100219.31
2023-05-01T00:35:39.091Z,100222.70
2023-05-01T00:38:06.830Z,100227.88
2023-05-01T00:40:42.268Z,100232.05
2023-05-01T00:43:10.723Z,100233.50
2023-05-01T00:45:38.864Z,100235.66
2023-05-01T00:48:05.923Z,100239.66
2023-05-01T00:50:32.933Z,100238.75
2023-05-01T00:53:00.170Z,100241.58
2023-05-01T00:55:28.370Z,100240.17
2023-05-01T00:57:55.738Z,100240.27
2023-05-01T01:00:24.897Z,100242.98
2023-05-01T01:02:52.269Z,100242.75
2023-05-01T01:05:19.316Z,100239.45
2023-05-01T01:08:19.979Z,100237.95
2023-05-01T01:10:51.042Z,100239.13
2023-05-01T01:13:27.912Z,100237.41
2023-05-01T01:16:06.300Z,100235.73
2023-05-01T01:18:37.851Z,100235.48
2023-05-01T01:21:29.461Z,100234.19
2023-05-01T01:24:33.606Z,100232.90
2023-05-01T01:27:45.812Z,100228.70
2023-05-01T01:30:30.945Z,100227.96
2023-05-01T01:33:01.050Z,100228.54
2023-05-01T01:35:29.354Z,100232.73
2023-05-01T01:38:05.684Z,100232.11
2023-05-01T01:40:50.167Z,100237.49
2023-05-01T01:43:17.232Z,100241.45
2023-05-01T01:45:47.012Z,100250.84
2023-05-01T01:48:17.895Z,100257.94
2023-05-01T01:50:45.332Z,100263.95
2023-05-01T01:53:14.792Z,100251.78
2023-05-01T01:55:42.314Z,100249.55
2023-05-01T01:58:10.108Z,100247.95
2023-05-01T02:00:37.613Z,100250.52
2023-05-01T02:03:06.163Z,100249.13
2023-05-01T02:05:35.222Z,100248.37
2023-05-01T02:08:02.290Z,100258.05
2023-05-01T02:10:32.911Z,100260.69
2023-05-01T02:13:00.332Z,100264.36
2023-05-01T02:15:27.612Z,100265.08
2023-05-01T02:17:54.711Z,100265.48
2023-05-01T02:20:21.861Z,100274.45
2023-05-01T02:22:50.217Z,100283.94
2023-05-01T02:25:17.437Z,100290.70
2023-05-01T02:27:50.167Z,100287.25
2023-05-01T02:30:18.221Z,100294.99
2023-05-01T02:32:45.289Z,100300.84
2023-05-01T02:35:12.228Z,100303.27
2023-05-01T02:37:39.158Z,100304.08
2023-05-01T02:40:07.159Z,100303.56
2023-05-01T02:42:35.014Z,100302.66
2023-05-01T02:45:11.894Z,100301.05
2023-05-01T02:47:39.302Z,100302.25
2023-05-01T02:50:07.577Z,100305.90
2023-05-01T02:52:34.683Z,100308.91
2023-05-01T02:55:21.830Z,100314.89
2023-05-01T02:57:50.811Z,100319.25
2023-05-01T03:00:18.063Z,100316.92
2023-05-01T03:02:45.379Z,100313.99
2023-05-01T03:05:12.459Z,100316.77
2023-05-01T03:07:39.428Z,100319.44
2023-05-01T03:10:09.697Z,100322.75
2023-05-01T03:12:36.879Z,100331.70
2023-05-01T03:15:04.183Z,100326.94
2023-05-01T03:17:31.930Z,100330.34
2023-05-01T03:19:58.844Z,100335.06
2023-05-01T03:22:29.067Z,100342.89
2023-05-01T03:24:56.037Z,100338.29
2023-05-01T03:27:23.147Z,100340.33
2023-05-01T03:29:50.047Z,100344.90
2023-05-01T03:32:18.020Z,100341.15
2023-05-01T03:34:45.839Z,100347.13
2023-05-01T03:37:13.047Z,100349.73
2023-05-01T03:39:40.334Z,100347.20
2023-05-01T03:42:25.735Z,100349.54
2023-05-01T03:44:56.706Z,100354.80
2023-05-01T03:47:24.027Z,100353.46
2023-05-01T03:49:50.894Z,100356.94
2023-05-01T03:52:17.735Z,100359.71
2023-05-01T03:54:45.115Z,100360.79
2023-05-01T03:57:22.817Z,100364.33
2023-05-01T03:59:50.177Z,100367.85
2023-05-01T04:02:17.533Z,100364.63
2023-05-01T04:04:45.433Z,100373.67
2023-05-01T04:07:15.994Z,100376.67
2023-05-01T04:09:43.334Z,100377.69
2023-05-01T04:12:13.050Z,100383.42
2023-05-01T04:14:40.113Z,100382.76
2023-05-01T04:17:09.859Z,100385.33
2023-05-01T04:19:37.770Z,100392.42
2023-05-01T04:22:05.142Z,100392.81
2023-05-01T04:24:35.467Z,100395.10
2023-05-01T04:27:04.306Z,100393.31
2023-05-01T04:29:31.920Z,100398.18
2023-05-01T04:31:59.424Z,100400.59
2023-05-01T04:34:29.023Z,100396.36
2023-05-01T04:36:56.778Z,100394.49
2023-05-01T04:39:23.747Z,100398.28
2023-05-01T04:41:50.842Z,100403.28
2023-05-01T04:44:18.008Z,100412.05
2023-05-01T04:46:45.616Z,100411.50
2023-05-01T04:49:12.555Z,100409.75
2023-05-01T04:51:39.451Z,100413.17
2023-05-01T04:54:08.549Z,100417.02
2023-05-01T04:56:37.735Z,100425.41
2023-05-01T04:59:04.727Z,100421.90
2023-05-01T05:01:33.184Z,100421.48
2023-05-01T05:04:00.295Z,100422.39
2023-05-01T05:06:27.619Z,100423.42
2023-05-01T05:08:55.265Z,100422.64
2023-05-01T05:11:22.143Z,100424.30
2023-05-01T05:13:52.156Z,100436.08
2023-05-01T05:16:20.092Z,100433.23
2023-05-01T05:18:46.986Z,100442.40
2023-05-01T05:21:16.263Z,100443.35
2023-05-01T05:23:47.717Z,100444.44
2023-05-01T05:26:14.569Z,100451.80
2023-05-01T05:28:42.110Z,100455.38
2023-05-01T05:31:10.092Z,100454.52
2023-05-01T05:33:38.291Z,100458.48
2023-05-01T05:36:06.141Z,100456.39
2023-05-01T05:38:40.161Z,100468.27
2023-05-01T05:41:08.106Z,100469.20
2023-05-01T05:43:36.869Z,100479.59
2023-05-01T05:46:05.608Z,100484.44
2023-05-01T05:48:35.597Z,100490.14
2023-05-01T05:51:03.996Z,100488.65
2023-05-01T05:53:30.956Z,100500.59
2023-05-01T05:55:58.368Z,100499.58
2023-05-01T05:58:25.403Z,100500.48
2023-05-01T06:00:55.527Z,100495.14
2023-05-01T06:03:24.310Z,100500.05
2023-05-01T06:05:56.100Z,100509.67
2023-05-01T06:08:23.970Z,100508.55
2023-05-01T06:10:52.040Z,100517.96
2023-05-01T06:13:19.604Z,100521.88
2023-05-01T06:15:48.617Z,100516.44
2023-05-01T06:18:16.592Z,100518.41
2023-05-01T06:20:43.860Z,100528.54
2023-05-01T06:23:14.155Z,100531.23
2023-05-01T06:25:54.533Z,100532.15
2023-05-01T06:28:24.242Z,100536.48
2023-05-01T06:30:51.315Z,100535.63
2023-05-01T06:33:21.559Z,100546.24
2023-05-01T06:35:59.489Z,100548.05
2023-05-01T06:38:27.109Z,100558.02
2023-05-01T06:40:55.425Z,100547.92
2023-05-01T06:43:22.316Z,100546.00
2023-05-01T06:45:49.610Z,100547.89
2023-05-01T06:48:16.674Z,100561.14
2023-05-01T06:50:43.589Z,100559.09
2023-05-01T06:53:10.832Z,100546.95
2023-05-01T06:55:37.878Z,100551.45
2023-05-01T06:58:12.727Z,100558.06
2023-05-01T07:00:50.606Z,100558.57
2023-05-01T07:03:17.846Z,100560.41
2023-05-01T07:05:44.880Z,100561.98
2023-05-01T07:08:12.239Z,100560.27
2023-05-01T07:10:41.800Z,100565.49
2023-05-01T07:13:09.346Z,100570.89
2023-05-01T07:15:37.024Z,100571.23
2023-05-01T07:18:05.602Z,100580.41
2023-05-01T07:20:33.986Z,100582.02
2023-05-01T07:23:01.459Z,100584.29
2023-05-01T07:25:28.609Z,100584.36
2023-05-01T07:27:55.962Z,100590.83
2023-05-01T07:30:23.538Z,100593.46
2023-05-01T07:32:50.727Z,100596.40
2023-05-01T07:35:17.629Z,100605.07
2023-05-01T07:37:44.631Z,100619.72
2023-05-01T07:40:11.537Z,100604.01
2023-05-01T07:42:38.946Z,100605.73
2023-05-01T07:45:07.038Z,100616.46
2023-05-01T07:47:34.226Z,100613.61
2023-05-01T07:50:04.387Z,100620.32
2023-05-01T07:52:32.502Z,100625.33
2023-05-01T07:54:59.274Z,100623.17
2023-05-01T07:57:26.286Z,100623.54
2023-05-01T07:59:56.423Z,100634.52
2023-05-01T08:02:23.865Z,100624.86
2023-05-01T08:04:51.131Z,100624.19
2023-05-01T08:07:19.175Z,100631.05
2023-05-01T08:09:46.186Z,100626.58
2023-05-01T08:12:13.262Z,100636.43
2023-05-01T08:14:40.235Z,100636.49
2023-05-01T08:17:07.293Z,100636.79
2023-05-01T08:19:35.341Z,100648.16
2023-05-01T08:22:02.145Z,100640.04
2023-05-01T08:24:29.379Z,100641.49
2023-05-01T08:26:56.417Z,100647.42
2023-05-01T08:29:23.454Z,100645.45
2023-05-01T08:31:51.674Z,100662.88
2023-05-01T08:34:18.705Z,100652.45
2023-05-01T08:36:45.571Z,100644.63
2023-05-01T08:39:12.833Z,100649.80
2023-05-01T08:41:46.832Z,100643.91
2023-05-01T08:44:15.903Z,100645.15
2023-05-01T08:47:06.272Z,100656.90
2023-05-01T08:49:34.365Z,100642.08
2023-05-01T08:52:02.000Z,100649.81
2023-05-01T08:54:30.610Z,100659.92
2023-05-01T08:57:02.047Z,100663.83
2023-05-01T08:59:33.659Z,100655.05
2023-05-01T09:02:02.186Z,100661.11
2023-05-01T09:04:31.852Z,100664.20
2023-05-01T09:07:00.478Z,100661.52
2023-05-01T09:09:30.670Z,100675.23
2023-05-01T09:12:01.148Z,100663.19
2023-05-01T09:14:29.275Z,100675.58
2023-05-01T09:16:56.585Z,100674.39
2023-05-01T09:19:24.150Z,100668.31
2023-05-01T09:21:50.966Z,100668.35
2023-05-01T09:24:18.589Z,100675.85
2023-05-01T09:26:45.496Z,100674.05
2023-05-01T09:29:14.572Z,100674.04
2023-05-01T09:31:41.358Z,100676.96
2023-05-01T09:34:10.528Z,100685.35
2023-05-01T09:36:40.357Z,100683.29
2023-05-01T09:39:07.244Z,100688.82
2023-05-01T09:41:34.421Z,100684.37
2023-05-01T09:44:01.710Z,100681.80
2023-05-01T09:46:29.048Z,100700.90
2023-05-01T09:49:00.487Z,100687.21
2023-05-01T09:51:28.987Z,100690.95
2023-05-01T09:53:59.968Z,100693.04
2023-05-01T09:56:31.970Z,100689.52
2023-05-01T09:59:15.887Z,100698.73
2023-05-01T10:01:44.552Z,100710.57
2023-05-01T10:04:12.014Z,100705.58
2023-05-01T10:06:39.168Z,100698.75
2023-05-01T10:09:07.491Z,100703.36
2023-05-01T10:11:51.773Z,100708.05
2023-05-01T10:14:19.878Z,100705.66
2023-05-01T10:16:46.749Z,100712.06
2023-05-01T10:19:14.679Z,100706.77
2023-05-01T10:21:42.276Z,100707.17
2023-05-01T10:24:09.906Z,100711.33
2023-05-01T10:26:37.532Z,100708.80
2023-05-01T10:29:04.785Z,100703.33
2023-05-01T10:31:33.283Z,100710.13
2023-05-01T10:34:01.573Z,100705.88
2023-05-01T10:36:33.462Z,100707.45
2023-05-01T10:39:00.304Z,100711.05
2023-05-01T10:41:58.275Z,100702.98
2023-05-01T10:44:27.754Z,100705.36
2023-05-01T10:46:55.205Z,100712.07
2023-05-01T10:49:22.377Z,100708.44
2023-05-01T10:52:04.309Z,100704.47
2023-05-01T10:54:34.216Z,100718.17
2023-05-01T10:57:02.915Z,100716.96
2023-05-01T10:59:58.414Z,100721.23
2023-05-01T11:02:26.999Z,100719.24
2023-05-01T11:04:56.042Z,100711.94
2023-05-01T11:07:24.488Z,100713.87
2023-05-01T11:09:57.176Z,100711.59
2023-05-01T11:12:46.111Z,100719.63
2023-05-01T11:15:30.042Z,100719.06
2023-05-01T11:17:57.314Z,100722.59
2023-05-01T11:20:24.122Z,100721.92
2023-05-01T11:22:52.188Z,100717.80
2023-05-01T11:25:22.427Z,100717.73
2023-05-01T11:27:52.846Z,100729.30
2023-05-01T11:30:21.742Z,100727.91
2023-05-01T11:32:55.661Z,100728.77
2023-05-01T11:35:24.065Z,100726.44
2023-05-01T11:37:51.267Z,100725.40
2023-05-01T11:40:20.421Z,100719.91
2023-05-01T11:42:48.489Z,100715.63
2023-05-01T11:45:15.371Z,100716.38
2023-05-01T11:47:43.618Z,100721.98
2023-05-01T11:50:11.393Z,100718.91
2023-05-01T11:52:50.546Z,100720.63
2023-05-01T11:55:17.391Z,100718.70
2023-05-01T11:57:51.928Z,100716.45
2023-05-01T12:00:31.707Z,100713.17
2023-05-01T12:02:59.908Z,100719.08
2023-05-01T12:05:29.618Z,100715.70
2023-05-01T12:08:18.173Z,100722.27
2023-05-01T12:10:48.502Z,100719.86
2023-05-01T12:13:16.172Z,100723.56
2023-05-01T12:15:47.133Z,100724.91
2023-05-01T12:18:15.072Z,100732.51
2023-05-01T12:20:46.957Z,100730.91
2023-05-01T12:23:15.729Z,100732.77
2023-05-01T12:25:43.010Z,100728.89
2023-05-01T12:28:12.729Z,100732.61
2023-05-01T12:30:40.266Z,100738.48
2023-05-01T12:33:18.511Z,100739.80
2023-05-01T12:35:49.630Z,100739.55
2023-05-01T12:38:25.869Z,100733.04
2023-05-01T12:40:57.232Z,100731.72
2023-05-01T12:43:36.925Z,100729.89
2023-05-01T12:46:04.981Z,100730.29
2023-05-01T12:48:33.709Z,100726.50
2023-05-01T12:51:00.820Z,100727.89
2023-05-01T12:53:28.421Z,100731.79
2023-05-01T12:56:08.126Z,100733.08
2023-05-01T12:58:37.094Z,100739.40
2023-05-01T13:01:04.614Z,100741.30
2023-05-01T13:03:33.102Z,100745.30
2023-05-01T13:06:01.880Z,100739.73
2023-05-01T13:08:30.311Z,100736.55
2023-05-01T13:11:03.410Z,100735.39
2023-05-01T13:13:34.061Z,100736.05
2023-05-01T13:16:12.037Z,100740.02
2023-05-01T13:18:53.308Z,100742.88
2023-05-01T13:21:21.547Z,100736.33
2023-05-01T13:24:06.840Z,100745.16
2023-05-01T13:26:35.345Z,100737.16
2023-05-01T13:29:05.245Z,100736.60
2023-05-01T13:31:32.454Z,100755.66
2023-05-01T13:34:01.663Z,100744.40
2023-05-01T13:36:36.715Z,100746.09
2023-05-01T13:39:04.145Z,100745.89
2023-05-01T13:41:35.129Z,100744.99
2023-05-01T13:44:02.138Z,100749.38
2023-05-01T13:46:29.276Z,100756.41
2023-05-01T13:48:58.598Z,100754.66
2023-05-01T13:51:26.671Z,100749.82
2023-05-01T13:53:55.100Z,100751.84
2023-05-01T13:56:23.983Z,100763.87
2023-05-01T13:58:51.397Z,100760.95
2023-05-01T14:01:23.004Z,100755.52
2023-05-01T14:03:50.028Z,100759.03
2023-05-01T14:06:25.810Z,100755.48
2023-05-01T14:08:53.905Z,100760.20
2023-05-01T14:11:23.223Z,100759.64
2023-05-01T14:13:50.742Z,100759.67
2023-05-01T14:16:26.506Z,100760.14
2023-05-01T14:18:57.034Z,100764.73
2023-05-01T14:21:27.178Z,100767.17
2023-05-01T14:23:56.803Z,100768.58
2023-05-01T14:26:24.446Z,100763.53
2023-05-01T14:28:51.528Z,100763.39
2023-05-01T14:31:35.323Z,100762.89
2023-05-01T14:40:37.034Z,100770.49
2023-05-01T14:43:04.110Z,100772.21
2023-05-01T14:49:52.060Z,100782.88
2023-05-01T14:53:00.314Z,100777.30
2023-05-01T14:55:34.372Z,100774.35
2023-05-01T14:58:07.389Z,100779.50
2023-05-01T15:00:34.516Z,100782.18
2023-05-01T15:03:04.909Z,100780.89
2023-05-01T15:05:38.142Z,100777.56
2023-05-01T15:08:06.456Z,100778.96
2023-05-01T15:10:33.469Z,100784.61
2023-05-01T15:13:00.505Z,100784.86
2023-05-01T15:15:29.366Z,100785.20
2023-05-01T15:17:56.238Z,100784.45
2023-05-01T15:20:23.144Z,100787.56
2023-05-01T15:22:49.983Z,100787.90
2023-05-01T15:25:17.214Z,100792.27
2023-05-01T15:27:45.854Z,100793.54
2023-05-01T15:30:14.318Z,100793.64
2023-05-01T15:32:41.548Z,100796.00
2023-05-01T15:35:08.709Z,100797.71
2023-05-01T15:37:37.047Z,100798.66
2023-05-01T15:40:04.964Z,100802.81
2023-05-01T15:42:31.883Z,100804.12
2023-05-01T15:44:59.669Z,100803.09
2023-05-01T15:47:28.770Z,100806.80
2023-05-01T15:49:57.522Z,100809.29
2023-05-01T15:52:25.227Z,100810.08
2023-05-01T15:54:52.338Z,100811.54
2023-05-01T15:57:19.156Z,100812.34
2023-05-01T15:59:50.694Z,100814.98
2023-05-01T16:02:19.096Z,100817.50
2023-05-01T16:04:47.374Z,100821.64
2023-05-01T16:07:16.393Z,100820.74
2023-05-01T16:09:44.795Z,100830.01
2023-05-01T16:12:11.778Z,100830.64
2023-05-01T16:14:40.507Z,100834.31
2023-05-01T16:17:07.763Z,100837.41
2023-05-01T16:19:38.558Z,100841.64
2023-05-01T16:22:06.465Z,100843.48
2023-05-01T16:24:34.118Z,100846.98
2023-05-01T16:27:01.192Z,100855.12
2023-05-01T16:29:28.190Z,100856.30
2023-05-01T16:31:55.171Z,100864.16
2023-05-01T16:34:23.882Z,100871.48
2023-05-01T16:36:51.197Z,100871.94
2023-05-01T16:39:21.406Z,100876.26
2023-05-01T16:41:52.992Z,100876.66
2023-05-01T16:44:21.385Z,100882.38
2023-05-01T16:46:55.763Z,100888.84
2023-05-01T16:49:23.449Z,100891.49
2023-05-01T16:51:50.365Z,100894.19
2023-05-01T16:54:17.298Z,100900.98
2023-05-01T16:56:44.141Z,100902.52
2023-05-01T16:59:10.987Z,100910.29
2023-05-01T17:01:37.942Z,100916.16
2023-05-01T17:04:05.731Z,100921.08
2023-05-01T17:06:33.481Z,100928.34
2023-05-01T17:09:00.566Z,100930.93
2023-05-01T17:11:30.429Z,100935.33
2023-05-01T17:14:03.234Z,100941.23
2023-05-01T17:16:31.951Z,100942.88
2023-05-01T17:18:58.922Z,100947.44
2023-05-01T17:21:28.376Z,100950.83
2023-05-01T17:23:55.582Z,100955.08
2023-05-01T17:26:22.496Z,100960.66
2023-05-01T17:28:50.156Z,100965.00
2023-05-01T17:31:19.938Z,100970.80
2023-05-01T17:33:48.704Z,100973.13
2023-05-01T17:36:15.817Z,100976.45
2023-05-01T17:38:45.350Z,100978.94
2023-05-01T17:41:12.125Z,100982.92
2023-05-01T17:43:39.126Z,100990.23
2023-05-01T17:46:06.481Z,100989.34
2023-05-01T17:48:33.988Z,100987.83
2023-05-01T17:51:01.084Z,100993.68
2023-05-01T17:53:36.971Z,100996.54
2023-05-01T17:56:03.890Z,101000.95
2023-05-01T17:58:34.602Z,101004.47
2023-05-01T18:01:12.343Z,101010.09
2023-05-01T18:04:27.970Z,101014.41
2023-05-01T18:06:57.554Z,101017.07
2023-05-01T18:09:29.135Z,101022.50
2023-05-01T18:11:57.173Z,101026.91
2023-05-01T18:14:25.607Z,101030.17
2023-05-01T18:22:54.272Z,101045.90
2023-05-01T18:25:25.794Z,101047.69
2023-05-01T18:27:59.077Z,101050.62
2023-05-01T18:30:30.238Z,101056.67
2023-05-01T18:32:58.123Z,101056.65
2023-05-01T18:35:25.110Z,101061.01
2023-05-01T18:37:53.407Z,101064.52
2023-05-01T18:40:25.017Z,101065.08
2023-05-01T18:45:55.198Z,101072.25
2023-05-01T18:48:22.735Z,101076.33
2023-05-01T18:51:01.205Z,101078.44
2023-05-01T18:53:34.740Z,101080.19
2023-05-01T18:56:01.675Z,101085.01
2023-05-01T18:58:29.749Z,101084.08
2023-05-01T19:00:57.501Z,101087.55
2023-05-01T19:03:27.138Z,101089.93
2023-05-01T19:05:54.083Z,101090.18
2023-05-01T19:08:20.936Z,101092.95
2023-05-01T19:10:48.049Z,101097.90
2023-05-01T19:13:16.709Z,101100.25
2023-05-01T19:15:44.011Z,101100.53
2023-05-01T19:18:14.497Z,101102.02
2023-05-01T19:20:42.758Z,101103.55
2023-05-01T19:23:09.559Z,101101.90
2023-05-01T19:25:41.330Z,101105.38
2023-05-01T19:28:08.446Z,101106.77
2023-05-01T19:30:38.482Z,101107.17
2023-05-01T19:33:07.757Z,101109.21
2023-05-01T19:35:35.127Z,101111.55
2023-05-01T19:38:02.443Z,101112.56
2023-05-01T19:40:29.886Z,101117.42
2023-05-01T19:42:57.028Z,101121.04
2023-05-01T19:45:27.238Z,101120.16
2023-05-01T19:47:54.594Z,101124.61
2023-05-01T19:50:25.384Z,101125.20
2023-05-01T19:53:06.564Z,101124.73
2023-05-01T19:55:33.974Z,101123.13
2023-05-01T19:58:03.652Z,101125.45
2023-05-01T20:00:37.381Z,101128.96
2023-05-01T20:03:05.153Z,101132.73
2023-05-01T20:05:32.523Z,101136.96
2023-05-01T20:08:01.496Z,101136.74
2023-05-01T20:13:56.365Z,101139.08
2023-05-01T20:16:23.361Z,101141.42
2023-05-01T20:18:51.557Z,101144.79
2023-05-01T20:21:19.051Z,101147.14
2023-05-01T20:23:45.907Z,101147.39
2023-05-01T20:26:12.873Z,101150.34
2023-05-01T20:28:39.716Z,101156.65
2023-05-01T20:31:06.640Z,101152.98
2023-05-01T20:33:34.038Z,101156.45
2023-05-01T20:36:03.756Z,101156.90
2023-05-01T20:38:31.165Z,101158.91
2023-05-01T20:40:57.967Z,101159.68
2023-05-01T20:43:26.464Z,101160.39
2023-05-01T20:45:53.321Z,101163.18
2023-05-01T20:48:20.514Z,101167.67
2023-05-01T20:50:49.374Z,101166.34
2023-05-01T20:53:16.421Z,101164.73
2023-05-01T20:55:43.268Z,101166.16
2023-05-01T20:58:13.378Z,101168.55
2023-05-01T21:00:40.340Z,101169.41
2023-05-01T21:03:08.768Z,101171.64
2023-05-01T21:05:35.649Z,101177.21
2023-05-01T21:08:02.712Z,101177.39
2023-05-01T21:10:29.713Z,101178.70
2023-05-01T21:12:57.304Z,101182.92
2023-05-01T21:15:24.339Z,101183.11
2023-05-01T21:17:51.476Z,101187.14
2023-05-01T21:20:33.077Z,101191.23
2023-05-01T21:23:04.059Z,101192.54
2023-05-01T21:25:31.284Z,101194.97
2023-05-01T21:28:01.440Z,101196.91
2023-05-01T21:30:32.561Z,101200.91
2023-05-01T21:33:05.120Z,101201.37
2023-05-01T21:35:32.172Z,101204.77
2023-05-01T21:38:01.378Z,101206.89
2023-05-01T21:40:28.462Z,101212.34
2023-05-01T21:42:58.234Z,101213.15
2023-05-01T21:45:25.214Z,101216.13
2023-05-01T21:47:52.749Z,101216.79
2023-05-01T21:50:20.379Z,101221.74
2023-05-01T21:52:48.535Z,101226.37
2023-05-01T21:55:16.681Z,101231.80
2023-05-01T21:57:44.030Z,101233.70
2023-05-01T22:00:11.914Z,101232.88
2023-05-01T22:02:44.158Z,101231.27
2023-05-01T22:05:15.511Z,101240.20
2023-05-01T22:07:44.613Z,101244.06
2023-05-01T22:10:14.805Z,101245.89
2023-05-01T22:12:42.389Z,101248.00
2023-05-01T22:15:11.091Z,101248.39
2023-05-01T22:17:39.776Z,101250.26
2023-05-01T22:20:09.675Z,101249.91
2023-05-01T22:22:38.575Z,101252.64
2023-05-01T22:25:06.133Z,101254.44
2023-05-01T22:27:34.099Z,101254.66
2023-05-01T22:30:01.632Z,101256.63
2023-05-01T22:32:29.358Z,101261.30
2023-05-01T22:34:56.300Z,101263.91
2023-05-01T22:37:24.980Z,101266.02
2023-05-01T22:39:52.642Z,101265.56
2023-05-01T22:42:19.611Z,101271.87
2023-05-01T22:44:46.580Z,101273.82
2023-05-01T22:47:13.576Z,101277.20
2023-05-01T22:49:41.067Z,101278.57
2023-05-01T22:52:08.009Z,101276.80
2023-05-01T22:54:35.036Z,101277.55
2023-05-01T22:57:02.598Z,101277.23
2023-05-01T22:59:29.954Z,101277.71
2023-05-01T23:01:56.908Z,101277.16
2023-05-01T23:04:23.744Z,101275.41
2023-05-01T23:06:51.609Z,101277.19
2023-05-01T23:09:18.561Z,101275.23
2023-05-01T23:11:46.006Z,101277.47
2023-05-01T23:14:16.404Z,101276.48
2023-05-01T23:16:44.133Z,101276.79
2023-05-01T23:19:30.211Z,101277.88
2023-05-01T23:22:10.672Z,101276.48
2023-05-01T23:24:48.818Z,101285.75
2023-05-01T23:27:16.568Z,101286.92
2023-05-01T23:29:56.928Z,101287.02
2023-05-01T23:32:28.830Z,101286.47
2023-05-01T23:35:03.160Z,101286.86
2023-05-01T23:37:30.640Z,101292.54
2023-05-01T23:40:00.116Z,101297.16
2023-05-01T23:42:28.393Z,101294.46
2023-05-01T23:44:56.318Z,101293.59
2023-05-01T23:47:23.697Z,101292.04
2023-05-01T23:49:50.915Z,101293.68
2023-05-01T23:52:18.261Z,101293.55
2023-05-01T23:54:45.246Z,101295.67
2023-05-01T23:57:12.396Z,101294.14
2023-05-01T23:59:39.459Z,101299.02
